createdAt,value
2023-02-24T00:02:15.330Z,227.80
2023-02-24T00:05:24.003Z,222.34
2023-02-24T00:08:30.709Z,212.78
2023-02-24T00:11:36.893Z,196.98
2023-02-24T00:14:47.883Z,191.96
2023-02-24T00:17:53.732Z,197.80
2023-02-24T00:21:08.558Z,193.73
2023-02-24T00:24:16.028Z,180.69
2023-02-24T00:27:22.751Z,184.15
2023-02-24T00:30:29.963Z,194.07
2023-02-24T00:33:39.619Z,188.17
2023-02-24T00:36:48.071Z,210.43
2023-02-24T00:39:58.770Z,210.59
2023-02-24T00:43:04.613Z,196.96
2023-02-24T00:46:12.676Z,186.60
2023-02-24T00:49:24.697Z,180.30
2023-02-24T00:52:34.648Z,188.32
2023-02-24T00:55:40.553Z,199.08
2023-02-24T00:58:48.228Z,217.47
2023-02-24T01:01:56.024Z,210.55
2023-02-24T01:05:05.277Z,205.60
2023-02-24T01:08:17.713Z,207.76
2023-02-24T01:11:41.974Z,203.93
2023-02-24T01:14:50.642Z,200.62
2023-02-24T01:17:57.422Z,202.31
2023-02-24T01:21:05.174Z,196.42
2023-02-24T01:24:18.507Z,186.53
2023-02-24T01:27:24.748Z,186.11
2023-02-24T01:30:31.699Z,177.33
2023-02-24T01:33:39.530Z,183.13
2023-02-24T01:36:47.665Z,185.52
2023-02-24T01:39:56.180Z,193.94
2023-02-24T01:43:08.881Z,196.11
2023-02-24T01:46:15.150Z,193.37
2023-02-24T01:49:33.273Z,188.28
2023-02-24T01:52:42.209Z,187.78
2023-02-24T01:55:56.823Z,187.87
2023-02-24T01:59:14.395Z,200.01
2023-02-24T02:02:27.225Z,186.45
2023-02-24T02:05:33.456Z,183.05
2023-02-24T02:08:45.302Z,180.67
2023-02-24T02:11:53.841Z,177.70
2023-02-24T02:15:13.319Z,177.77
2023-02-24T02:18:41.530Z,179.15
2023-02-24T02:22:34.012Z,181.11
2023-02-24T02:26:11.785Z,179.19
2023-02-24T02:29:52.061Z,179.15
2023-02-24T02:34:05.646Z,176.34
2023-02-24T02:37:25.386Z,168.51
2023-02-24T02:40:45.992Z,157.73
2023-02-24T02:44:07.942Z,152.51
2023-02-24T02:47:26.376Z,146.65
2023-02-24T02:50:46.201Z,150.27
2023-02-24T02:54:05.266Z,149.71
2023-02-24T02:57:24.033Z,149.12
2023-02-24T03:00:51.594Z,150.59
2023-02-24T03:04:08.623Z,155.84
2023-02-24T03:07:23.250Z,150.39
2023-02-24T03:10:34.552Z,155.28
2023-02-24T03:13:49.845Z,159.54
2023-02-24T03:16:59.792Z,165.32
2023-02-24T03:20:26.432Z,163.44
2023-02-24T03:23:37.807Z,175.54
2023-02-24T03:26:52.840Z,186.10
2023-02-24T03:30:10.020Z,180.08
2023-02-24T03:33:29.965Z,189.44
2023-02-24T03:36:36.992Z,197.38
2023-02-24T03:39:51.518Z,194.53
2023-02-24T03:43:09.201Z,186.03
2023-02-24T03:46:18.844Z,174.10
2023-02-24T03:49:26.890Z,173.56
2023-02-24T03:52:49.344Z,172.62
2023-02-24T03:56:13.421Z,171.10
2023-02-24T03:59:44.032Z,176.83
2023-02-24T04:03:01.236Z,173.47
2023-02-24T04:06:23.843Z,180.12
2023-02-24T04:09:42.607Z,184.04
2023-02-24T04:13:11.564Z,185.11
2023-02-24T04:16:29.143Z,182.97
2023-02-24T04:19:43.075Z,194.66
2023-02-24T04:22:58.206Z,183.42
2023-02-24T04:26:06.646Z,184.69
2023-02-24T04:29:23.246Z,191.26
2023-02-24T04:32:34.533Z,200.51
2023-02-24T04:35:41.549Z,210.59
2023-02-24T04:38:48.944Z,220.24
2023-02-24T04:42:08.317Z,250.13
2023-02-24T04:45:30.330Z,249.02
2023-02-24T04:48:36.308Z,259.68
2023-02-24T04:51:45.121Z,265.75
2023-02-24T04:54:51.058Z,271.65
2023-02-24T04:57:58.259Z,249.10
2023-02-24T05:01:13.205Z,254.29
2023-02-24T05:04:20.938Z,258.91
2023-02-24T05:07:29.281Z,256.63
2023-02-24T05:10:42.480Z,257.25
2023-02-24T05:13:49.028Z,258.45
2023-02-24T05:17:00.625Z,244.92
2023-02-24T05:20:20.692Z,238.39
2023-02-24T05:23:29.331Z,226.00
2023-02-24T05:26:37.652Z,222.83
2023-02-24T05:29:44.618Z,217.33
2023-02-24T05:32:54.636Z,213.78
2023-02-24T05:36:08.776Z,210.06
2023-02-24T05:39:19.374Z,205.90
2023-02-24T05:42:26.081Z,206.86
2023-02-24T05:45:31.929Z,205.36
2023-02-24T05:48:41.418Z,210.33
2023-02-24T05:51:57.866Z,205.19
2023-02-24T05:55:06.896Z,201.38
2023-02-24T05:58:12.843Z,203.04
2023-02-24T06:01:31.346Z,196.25
2023-02-24T06:04:54.290Z,196.20
2023-02-24T06:08:11.868Z,201.59
2023-02-24T06:11:19.503Z,202.48
2023-02-24T06:14:26.319Z,211.88
2023-02-24T06:17:32.964Z,209.36
2023-02-24T06:20:42.300Z,200.99
2023-02-24T06:23:48.526Z,207.63
2023-02-24T06:27:08.341Z,216.23
2023-02-24T06:30:18.733Z,249.91
2023-02-24T06:33:27.178Z,247.40
2023-02-24T06:36:35.788Z,246.18
2023-02-24T06:39:43.229Z,272.05
2023-02-24T06:42:54.204Z,271.78
2023-02-24T06:46:01.612Z,246.26
2023-02-24T06:49:12.884Z,252.70
2023-02-24T06:52:22.197Z,265.88
2023-02-24T06:55:30.801Z,261.25
2023-02-24T06:58:39.335Z,268.14
2023-02-24T07:01:49.384Z,293.15
2023-02-24T07:04:58.780Z,291.25
2023-02-24T07:08:08.725Z,298.96
2023-02-24T07:11:17.845Z,309.39
2023-02-24T07:14:27.327Z,302.61
2023-02-24T07:17:34.095Z,287.51
2023-02-24T07:20:52.355Z,280.98
2023-02-24T07:24:05.043Z,280.28
2023-02-24T07:27:25.813Z,265.11
2023-02-24T07:30:33.591Z,263.44
2023-02-24T07:33:40.455Z,271.04
2023-02-24T07:36:52.039Z,262.52
2023-02-24T07:40:00.551Z,271.48
2023-02-24T07:43:07.747Z,269.92
2023-02-24T07:46:19.445Z,281.97
2023-02-24T07:49:30.407Z,275.13
2023-02-24T07:52:37.418Z,262.68
2023-02-24T07:55:53.970Z,252.31
2023-02-24T07:59:08.145Z,249.07
2023-02-24T08:02:14.854Z,244.74
2023-02-24T08:05:21.811Z,260.92
2023-02-24T08:08:33.604Z,279.30
2023-02-24T08:11:52.598Z,260.59
2023-02-24T08:15:00.410Z,279.78
2023-02-24T08:18:06.930Z,281.68
2023-02-24T08:21:14.401Z,275.23
2023-02-24T08:24:25.317Z,280.80
2023-02-24T08:27:39.183Z,277.57
2023-02-24T08:30:47.963Z,270.58
2023-02-24T08:33:56.538Z,256.60
2023-02-24T08:37:02.340Z,271.10
2023-02-24T08:40:34.302Z,271.13
2023-02-24T08:43:46.608Z,271.42
2023-02-24T08:46:53.870Z,269.71
2023-02-24T08:50:05.146Z,266.02
2023-02-24T08:53:19.370Z,275.09
2023-02-24T08:56:29.230Z,272.94
2023-02-24T08:59:50.217Z,291.63
2023-02-24T09:02:56.420Z,287.12
2023-02-24T09:06:08.968Z,281.23
2023-02-24T09:09:22.824Z,293.65
2023-02-24T09:12:34.785Z,294.43
2023-02-24T09:15:44.742Z,299.86
2023-02-24T09:19:10.905Z,317.26
2023-02-24T09:22:32.216Z,322.46
2023-02-24T09:25:49.840Z,287.17
2023-02-24T09:28:58.565Z,288.66
2023-02-24T09:32:13.816Z,317.67
2023-02-24T09:35:26.229Z,321.66
2023-02-24T09:38:46.342Z,334.86
2023-02-24T09:42:19.535Z,310.83
2023-02-24T09:45:33.753Z,309.31
2023-02-24T09:49:12.402Z,295.53
2023-02-24T09:52:38.279Z,293.07
2023-02-24T09:56:08.916Z,316.52
2023-02-24T09:59:33.415Z,320.21
2023-02-24T10:03:00.442Z,307.94
2023-02-24T10:06:23.466Z,293.52
2023-02-24T10:09:38.852Z,283.12
2023-02-24T10:12:45.933Z,275.50
2023-02-24T10:16:12.284Z,274.87
2023-02-24T10:19:34.379Z,255.29
2023-02-24T10:22:56.056Z,262.68
2023-02-24T10:26:08.981Z,261.94
2023-02-24T10:29:36.242Z,251.83
2023-02-24T10:32:59.111Z,248.35
2023-02-24T10:36:13.262Z,237.46
2023-02-24T10:39:26.385Z,242.71
2023-02-24T10:42:37.801Z,249.35
2023-02-24T10:45:46.422Z,247.67
2023-02-24T10:49:03.480Z,237.46
2023-02-24T10:52:11.373Z,240.89
2023-02-24T10:55:52.775Z,220.85
2023-02-24T10:59:36.732Z,214.61
2023-02-24T11:03:07.414Z,219.27
2023-02-24T11:06:42.537Z,227.09
2023-02-24T11:09:52.863Z,230.26
2023-02-24T11:13:16.971Z,216.93
2023-02-24T11:16:36.286Z,217.68
2023-02-24T11:19:48.351Z,224.93
2023-02-24T11:22:58.025Z,230.96
2023-02-24T11:26:12.961Z,237.44
2023-02-24T11:29:54.853Z,238.08
2023-02-24T11:33:26.459Z,226.78
2023-02-24T11:36:49.729Z,250.55
2023-02-24T11:40:04.089Z,237.45
2023-02-24T11:43:21.599Z,224.79
2023-02-24T11:46:45.274Z,215.46
2023-02-24T11:50:06.068Z,246.01
2023-02-24T11:53:41.362Z,242.42
2023-02-24T11:56:56.206Z,224.86
2023-02-24T12:00:20.368Z,234.03
2023-02-24T12:03:43.104Z,260.44
2023-02-24T12:07:02.737Z,254.58
2023-02-24T12:10:22.779Z,237.74
2023-02-24T12:13:41.803Z,266.68
2023-02-24T12:16:59.615Z,267.20
2023-02-24T12:20:23.460Z,249.06
2023-02-24T12:23:37.696Z,252.73
2023-02-24T12:27:01.516Z,275.80
2023-02-24T12:30:57.877Z,310.11
2023-02-24T12:34:15.774Z,285.49
2023-02-24T12:37:48.582Z,293.49
2023-02-24T12:41:15.470Z,327.51
2023-02-24T12:44:39.978Z,336.93
2023-02-24T12:48:07.603Z,284.68
2023-02-24T12:51:29.955Z,265.08
2023-02-24T12:54:50.469Z,264.55
2023-02-24T12:58:14.158Z,264.91
2023-02-24T13:01:33.448Z,271.91
2023-02-24T13:04:56.413Z,284.82
2023-02-24T13:08:27.196Z,273.68
2023-02-24T13:11:52.948Z,273.13
2023-02-24T13:14:59.848Z,283.27
2023-02-24T13:18:06.696Z,289.68
2023-02-24T13:21:25.254Z,276.37
2023-02-24T13:24:32.784Z,289.68
2023-02-24T13:27:45.976Z,290.45
2023-02-24T13:31:04.171Z,343.31
2023-02-24T13:34:17.981Z,275.30
2023-02-24T13:37:36.411Z,288.82
2023-02-24T13:40:42.365Z,277.92
2023-02-24T13:44:02.571Z,278.98
2023-02-24T13:47:57.451Z,279.07
2023-02-24T13:51:53.529Z,281.70
2023-02-24T13:55:33.884Z,288.56
2023-02-24T13:59:12.792Z,278.49
2023-02-24T14:02:23.379Z,268.04
2023-02-24T14:05:37.414Z,271.06
2023-02-24T14:08:54.353Z,276.93
2023-02-24T14:12:07.893Z,277.52
2023-02-24T14:15:31.558Z,265.03
2023-02-24T14:18:39.620Z,306.36
2023-02-24T14:21:55.272Z,308.19
2023-02-24T14:25:05.730Z,286.76
2023-02-24T14:28:27.449Z,291.40
2023-02-24T14:31:37.130Z,316.20
2023-02-24T14:34:43.659Z,303.05
2023-02-24T14:37:50.621Z,317.50
2023-02-24T14:40:56.508Z,315.34
2023-02-24T14:44:19.526Z,293.18
2023-02-24T14:47:33.613Z,282.55
2023-02-24T14:50:41.001Z,270.16
2023-02-24T14:53:54.844Z,305.09
2023-02-24T14:57:04.525Z,270.79
2023-02-24T15:00:24.381Z,244.50
2023-02-24T15:03:40.790Z,205.30
2023-02-24T15:06:47.803Z,183.02
2023-02-24T15:09:56.870Z,222.32
2023-02-24T15:13:13.854Z,218.16
2023-02-24T15:16:28.955Z,232.79
2023-02-24T15:19:45.997Z,243.84
2023-02-24T15:22:54.043Z,200.89
2023-02-24T15:26:00.132Z,173.71
2023-02-24T15:29:18.338Z,169.16
2023-02-24T15:32:30.789Z,166.15
2023-02-24T15:35:54.063Z,177.84
2023-02-24T15:39:05.874Z,191.11
2023-02-24T15:42:28.673Z,200.17
2023-02-24T15:45:38.794Z,206.47
2023-02-24T15:48:47.883Z,207.00
2023-02-24T15:52:04.533Z,231.31
2023-02-24T15:55:17.982Z,192.39
2023-02-24T15:58:26.484Z,193.03
2023-02-24T16:01:34.130Z,209.17
2023-02-24T16:04:48.937Z,192.72
2023-02-24T16:07:58.565Z,195.83
2023-02-24T16:11:04.550Z,207.83
2023-02-24T16:14:19.862Z,198.83
2023-02-24T16:17:36.040Z,211.25
2023-02-24T16:20:42.822Z,221.06
2023-02-24T16:23:51.513Z,220.51
2023-02-24T16:26:58.365Z,230.55
2023-02-24T16:30:04.794Z,261.44
2023-02-24T16:33:17.676Z,270.10
2023-02-24T16:36:25.622Z,276.42
2023-02-24T16:39:35.168Z,279.12
2023-02-24T16:42:41.068Z,288.69
2023-02-24T16:45:49.191Z,279.50
2023-02-24T16:48:56.838Z,278.52
2023-02-24T16:52:03.696Z,251.78
2023-02-24T16:55:16.031Z,279.38
2023-02-24T16:58:23.632Z,265.30
2023-02-24T17:01:29.781Z,267.26
2023-02-24T17:04:36.599Z,240.71
2023-02-24T17:07:42.801Z,261.58
2023-02-24T17:10:54.473Z,231.38
2023-02-24T17:14:00.426Z,142.59
2023-02-24T17:17:07.532Z,129.59
2023-02-24T17:20:17.239Z,93.97
2023-02-24T17:23:24.776Z,64.52
2023-02-24T17:26:33.674Z,82.30
2023-02-24T17:29:40.541Z,86.33
2023-02-24T17:32:46.761Z,104.84
2023-02-24T17:35:53.589Z,139.73
2023-02-24T17:38:59.606Z,146.41
2023-02-24T17:42:15.686Z,144.82
2023-02-24T17:45:22.190Z,147.94
2023-02-24T17:48:28.988Z,307.63
2023-02-24T17:51:38.738Z,398.72
2023-02-24T17:54:45.598Z,439.88
2023-02-24T17:57:57.029Z,440.55
2023-02-24T18:01:24.685Z,411.08
2023-02-24T18:04:30.613Z,425.81
2023-02-24T18:07:37.734Z,385.51
2023-02-24T18:10:51.894Z,368.44
2023-02-24T18:14:05.114Z,350.51
2023-02-24T18:17:11.106Z,351.71
2023-02-24T18:20:37.935Z,350.24
2023-02-24T18:23:48.884Z,333.22
2023-02-24T18:26:55.769Z,346.54
2023-02-24T18:30:10.354Z,324.82
2023-02-24T18:33:28.338Z,266.23
2023-02-24T18:36:34.331Z,262.51
2023-02-24T18:39:41.264Z,267.07
2023-02-24T18:42:47.226Z,223.78
2023-02-24T18:46:00.178Z,201.61
2023-02-24T18:49:09.071Z,197.61
2023-02-24T18:52:15.829Z,200.22
2023-02-24T18:55:22.612Z,194.82
2023-02-24T18:58:29.368Z,192.79
2023-02-24T19:01:41.854Z,204.36
2023-02-24T19:04:53.524Z,191.09
2023-02-24T19:08:00.052Z,194.03
2023-02-24T19:11:12.606Z,204.45
2023-02-24T19:14:20.180Z,197.95
2023-02-24T19:17:29.678Z,194.69
2023-02-24T19:20:35.999Z,194.50
2023-02-24T19:23:42.831Z,198.65
2023-02-24T19:26:56.626Z,192.37
2023-02-24T19:30:08.796Z,192.42
2023-02-24T19:33:17.768Z,196.51
2023-02-24T19:36:26.650Z,193.64
2023-02-24T19:39:33.173Z,200.43
2023-02-24T19:42:40.758Z,203.37
2023-02-24T19:45:47.401Z,199.73
2023-02-24T19:48:59.193Z,198.96
2023-02-24T19:52:05.281Z,201.21
2023-02-24T19:55:14.814Z,207.54
2023-02-24T19:58:20.989Z,201.68
2023-02-24T20:01:30.565Z,195.31
2023-02-24T20:04:39.214Z,210.36
2023-02-24T20:07:46.397Z,209.97
2023-02-24T20:11:02.798Z,217.79
2023-02-24T20:14:11.518Z,242.16
2023-02-24T20:17:17.823Z,276.26
2023-02-24T20:20:27.496Z,284.90
2023-02-24T20:23:34.809Z,279.06
2023-02-24T20:26:46.515Z,285.40
2023-02-24T20:29:53.746Z,271.05
2023-02-24T20:33:00.713Z,256.27
2023-02-24T20:36:21.188Z,271.42
2023-02-24T20:39:28.133Z,270.70
2023-02-24T20:42:34.148Z,286.08
2023-02-24T20:45:49.684Z,279.61
2023-02-24T20:49:00.682Z,273.83
2023-02-24T20:52:13.073Z,268.28
2023-02-24T20:55:19.303Z,263.89
2023-02-24T20:58:30.697Z,254.38
2023-02-24T21:01:45.081Z,259.72
2023-02-24T21:04:53.278Z,219.81
2023-02-24T21:08:08.457Z,191.26
2023-02-24T21:11:18.534Z,210.29
2023-02-24T21:14:25.047Z,232.47
2023-02-24T21:17:34.407Z,222.46
2023-02-24T21:20:41.207Z,225.61
2023-02-24T21:23:51.644Z,220.90
2023-02-24T21:26:57.540Z,168.12
2023-02-24T21:30:04.200Z,179.91
2023-02-24T21:33:14.420Z,195.21
2023-02-24T21:36:24.551Z,187.12
2023-02-24T21:39:33.304Z,161.91
2023-02-24T21:42:42.078Z,159.38
2023-02-24T21:45:50.715Z,231.02
2023-02-24T21:48:58.166Z,225.37
2023-02-24T21:52:11.667Z,219.36
2023-02-24T21:55:23.641Z,223.68
2023-02-24T21:58:29.458Z,225.47
2023-02-24T22:01:39.549Z,213.39
2023-02-24T22:04:47.023Z,200.15
2023-02-24T22:07:58.435Z,173.10
2023-02-24T22:11:07.088Z,165.03
2023-02-24T22:14:17.448Z,164.68
2023-02-24T22:17:23.382Z,162.29
2023-02-24T22:20:32.368Z,159.05
2023-02-24T22:23:39.400Z,165.41
2023-02-24T22:26:49.956Z,176.32
2023-02-24T22:29:56.267Z,193.52
2023-02-24T22:33:03.117Z,187.25
2023-02-24T22:36:12.592Z,194.76
2023-02-24T22:39:19.346Z,188.16
2023-02-24T22:42:28.818Z,210.07
2023-02-24T22:45:35.614Z,194.84
2023-02-24T22:48:44.907Z,210.63
2023-02-24T22:51:53.453Z,209.58
2023-02-24T22:54:59.416Z,198.52
2023-02-24T22:58:10.564Z,200.27
2023-02-24T23:01:20.578Z,198.18
2023-02-24T23:04:29.378Z,192.94
2023-02-24T23:07:35.352Z,178.77
2023-02-24T23:10:42.119Z,172.85
2023-02-24T23:13:54.813Z,156.49
2023-02-24T23:17:08.672Z,171.42
2023-02-24T23:20:23.696Z,180.49
2023-02-24T23:23:34.020Z,172.74
2023-02-24T23:26:47.507Z,163.71
2023-02-24T23:29:56.823Z,158.75
2023-02-24T23:33:06.340Z,156.20
2023-02-24T23:36:18.888Z,172.34
2023-02-24T23:39:25.130Z,203.30
2023-02-24T23:42:32.211Z,187.81
2023-02-24T23:45:44.584Z,192.83
2023-02-24T23:48:55.438Z,188.96
2023-02-24T23:52:02.025Z,189.99
2023-02-24T23:55:09.765Z,192.64
2023-02-24T23:58:16.865Z,194.63
